createdAt,value
2023-03-30T00:00:42.307Z,1.30
2023-03-30T00:01:43.192Z,0.90
2023-03-30T00:02:44.480Z,0.80
2023-03-30T00:03:45.261Z,0.80
2023-03-30T00:04:45.803Z,1.10
2023-03-30T00:05:46.302Z,0.80
2023-03-30T00:06:47.184Z,0.80
2023-03-30T00:07:48.062Z,0.90
2023-03-30T00:08:48.947Z,1.00
2023-03-30T00:09:49.849Z,0.90
2023-03-30T00:10:50.745Z,1.00
2023-03-30T00:11:51.614Z,0.90
2023-03-30T00:12:52.615Z,0.80
2023-03-30T00:13:53.483Z,0.90
2023-03-30T00:14:54.346Z,1.00
2023-03-30T00:15:55.218Z,0.90
2023-03-30T00:16:56.258Z,0.80
2023-03-30T00:17:57.257Z,0.90
2023-03-30T00:18:57.624Z,0.80
2023-03-30T00:19:58.536Z,0.90
2023-03-30T00:20:59.430Z,0.90
2023-03-30T00:22:00.310Z,0.90
2023-03-30T00:23:01.197Z,0.90
2023-03-30T00:24:02.095Z,0.90
2023-03-30T00:25:02.943Z,0.90
2023-03-30T00:26:03.844Z,1.20
2023-03-30T00:27:04.710Z,1.00
2023-03-30T00:28:05.588Z,1.00
2023-03-30T00:29:06.467Z,0.90
2023-03-30T00:30:07.372Z,0.80
2023-03-30T00:31:08.234Z,0.80
2023-03-30T00:32:09.178Z,0.70
2023-03-30T00:33:10.092Z,1.00
2023-03-30T00:34:10.928Z,0.80
2023-03-30T00:35:11.826Z,0.80
2023-03-30T00:36:12.781Z,0.90
2023-03-30T00:37:13.674Z,0.90
2023-03-30T00:38:14.556Z,0.90
2023-03-30T00:39:15.426Z,0.80
2023-03-30T00:40:16.306Z,0.90
2023-03-30T00:41:17.229Z,0.80
2023-03-30T00:42:18.088Z,1.20
2023-03-30T00:43:18.967Z,0.90
2023-03-30T00:44:19.849Z,0.90
2023-03-30T00:45:20.766Z,0.90
2023-03-30T00:46:21.675Z,1.10
2023-03-30T00:47:22.561Z,0.90
2023-03-30T00:48:23.427Z,0.80
2023-03-30T00:49:24.310Z,0.80
2023-03-30T00:50:25.190Z,0.70
2023-03-30T00:51:26.075Z,0.90
2023-03-30T00:52:26.954Z,1.30
2023-03-30T00:53:27.849Z,0.90
2023-03-30T00:54:28.716Z,1.20
2023-03-30T00:55:29.594Z,1.00
2023-03-30T00:56:30.487Z,1.00
2023-03-30T00:57:31.409Z,0.90
2023-03-30T00:58:32.296Z,0.80
2023-03-30T00:59:33.195Z,0.90
2023-03-30T01:00:34.067Z,1.00
2023-03-30T01:01:34.940Z,0.80
2023-03-30T01:02:35.892Z,0.90
2023-03-30T01:03:36.856Z,1.00
2023-03-30T01:04:37.289Z,0.90
2023-03-30T01:05:38.180Z,0.90
2023-03-30T01:06:39.055Z,1.10
2023-03-30T01:07:39.941Z,0.90
2023-03-30T01:08:40.810Z,1.60
2023-03-30T01:09:41.687Z,1.70
2023-03-30T01:10:42.182Z,1.90
2023-03-30T01:11:43.094Z,2.50
2023-03-30T01:12:43.982Z,1.60
2023-03-30T01:13:44.837Z,1.80
2023-03-30T01:14:45.711Z,1.60
2023-03-30T01:15:46.648Z,1.20
2023-03-30T01:16:47.484Z,1.50
2023-03-30T01:17:48.379Z,1.50
2023-03-30T01:18:49.278Z,0.90
2023-03-30T01:19:50.127Z,0.90
2023-03-30T01:20:50.998Z,1.00
2023-03-30T01:21:51.894Z,1.10
2023-03-30T01:22:52.800Z,0.80
2023-03-30T01:23:53.657Z,0.80
2023-03-30T01:24:54.530Z,1.00
2023-03-30T01:25:55.407Z,1.10
2023-03-30T01:26:56.292Z,0.80
2023-03-30T01:27:57.176Z,1.10
2023-03-30T01:28:58.037Z,1.10
2023-03-30T01:29:58.918Z,1.20
2023-03-30T01:30:59.848Z,1.10
2023-03-30T01:32:00.732Z,1.00
2023-03-30T01:33:01.650Z,1.30
2023-03-30T01:34:02.487Z,0.90
2023-03-30T01:35:03.387Z,0.90
2023-03-30T01:36:04.287Z,1.10
2023-03-30T01:37:05.168Z,1.00
2023-03-30T01:38:06.031Z,0.90
2023-03-30T01:39:06.946Z,1.00
2023-03-30T01:40:07.797Z,1.10
2023-03-30T01:41:08.673Z,0.90
2023-03-30T01:42:09.566Z,1.00
2023-03-30T01:43:10.450Z,0.80
2023-03-30T01:44:11.319Z,1.10
2023-03-30T01:45:12.198Z,1.10
2023-03-30T01:46:13.107Z,0.90
2023-03-30T01:47:13.955Z,0.90
2023-03-30T01:48:14.835Z,1.20
2023-03-30T01:49:15.714Z,1.40
2023-03-30T01:50:16.620Z,0.90
2023-03-30T01:51:17.498Z,0.90
2023-03-30T01:52:18.401Z,0.80
2023-03-30T01:53:19.263Z,1.00
2023-03-30T01:54:20.138Z,0.90
2023-03-30T01:55:21.018Z,1.20
2023-03-30T01:56:21.935Z,0.90
2023-03-30T01:57:22.848Z,0.90
2023-03-30T01:58:23.711Z,0.90
2023-03-30T01:59:24.591Z,1.00
2023-03-30T02:00:25.468Z,0.80
2023-03-30T02:01:26.439Z,1.00
2023-03-30T02:02:27.578Z,1.10
2023-03-30T02:03:28.382Z,0.90
2023-03-30T02:04:28.483Z,0.90
2023-03-30T02:05:29.361Z,0.80
2023-03-30T02:06:30.241Z,0.90
2023-03-30T02:07:31.139Z,0.80
2023-03-30T02:08:32.030Z,1.00
2023-03-30T02:09:32.910Z,0.80
2023-03-30T02:10:33.780Z,1.10
2023-03-30T02:11:34.648Z,1.00
2023-03-30T02:12:35.545Z,0.90
2023-03-30T02:13:36.426Z,0.80
2023-03-30T02:14:37.343Z,0.90
2023-03-30T02:15:38.193Z,0.80
2023-03-30T02:16:39.114Z,1.20
2023-03-30T02:17:40.071Z,0.70
2023-03-30T02:18:40.932Z,0.90
2023-03-30T02:19:41.806Z,0.90
2023-03-30T02:20:42.694Z,1.20
2023-03-30T02:21:43.580Z,1.00
2023-03-30T02:22:44.462Z,0.80
2023-03-30T02:23:45.384Z,0.90
2023-03-30T02:24:46.246Z,1.00
2023-03-30T02:25:47.114Z,1.00
2023-03-30T02:26:48.024Z,0.90
2023-03-30T02:27:48.900Z,1.10
2023-03-30T02:28:49.787Z,0.80
2023-03-30T02:29:50.665Z,0.90
2023-03-30T02:30:51.543Z,0.70
2023-03-30T02:31:52.514Z,0.90
2023-03-30T02:32:53.453Z,1.00
2023-03-30T02:33:54.285Z,0.90
2023-03-30T02:34:55.165Z,1.00
2023-03-30T02:35:56.049Z,1.20
2023-03-30T02:36:56.951Z,0.90
2023-03-30T02:37:57.800Z,0.80
2023-03-30T02:38:58.706Z,0.70
2023-03-30T02:39:59.565Z,0.80
2023-03-30T02:41:00.453Z,0.90
2023-03-30T02:42:01.320Z,0.70
2023-03-30T02:43:02.209Z,1.10
2023-03-30T02:44:03.097Z,0.70
2023-03-30T02:45:03.992Z,0.90
2023-03-30T02:46:04.927Z,1.30
2023-03-30T02:47:05.786Z,0.80
2023-03-30T02:48:06.716Z,0.80
2023-03-30T02:49:07.579Z,0.90
2023-03-30T02:50:08.435Z,0.90
2023-03-30T02:51:09.329Z,1.60
2023-03-30T02:52:10.214Z,0.90
2023-03-30T02:53:11.104Z,0.90
2023-03-30T02:54:11.979Z,1.10
2023-03-30T02:55:12.857Z,1.10
2023-03-30T02:56:13.735Z,1.00
2023-03-30T02:57:14.674Z,0.80
2023-03-30T02:58:15.533Z,0.90
2023-03-30T02:59:16.424Z,0.90
2023-03-30T03:00:17.313Z,0.80
2023-03-30T03:01:18.290Z,0.80
2023-03-30T03:02:18.741Z,0.80
2023-03-30T03:03:19.813Z,1.20
2023-03-30T03:04:20.263Z,0.90
2023-03-30T03:05:21.143Z,0.80
2023-03-30T03:06:22.025Z,1.00
2023-03-30T03:07:22.928Z,0.80
2023-03-30T03:08:23.804Z,1.00
2023-03-30T03:09:24.702Z,0.70
2023-03-30T03:10:25.568Z,0.70
2023-03-30T03:11:26.457Z,1.30
2023-03-30T03:12:27.316Z,0.70
2023-03-30T03:13:28.220Z,0.90
2023-03-30T03:14:29.099Z,1.10
2023-03-30T03:15:29.977Z,0.90
2023-03-30T03:16:30.967Z,1.20
2023-03-30T03:17:31.908Z,1.20
2023-03-30T03:18:32.743Z,0.80
2023-03-30T03:19:33.628Z,0.90
2023-03-30T03:20:34.511Z,0.80
2023-03-30T03:21:35.385Z,0.80
2023-03-30T03:22:36.262Z,0.80
2023-03-30T03:23:37.224Z,0.80
2023-03-30T03:24:38.039Z,0.90
2023-03-30T03:25:38.917Z,0.80
2023-03-30T03:26:39.803Z,0.70
2023-03-30T03:27:40.688Z,0.80
2023-03-30T03:28:41.591Z,0.70
2023-03-30T03:29:42.479Z,0.80
2023-03-30T03:30:43.379Z,1.80
2023-03-30T03:31:44.230Z,0.80
2023-03-30T03:32:45.165Z,1.00
2023-03-30T03:33:46.033Z,0.90
2023-03-30T03:34:46.918Z,1.00
2023-03-30T03:35:47.832Z,0.90
2023-03-30T03:36:48.735Z,0.80
2023-03-30T03:37:49.633Z,0.80
2023-03-30T03:38:50.489Z,1.20
2023-03-30T03:39:51.372Z,0.70
2023-03-30T03:40:52.246Z,1.00
2023-03-30T03:41:53.134Z,1.00
2023-03-30T03:42:54.011Z,1.00
2023-03-30T03:43:54.906Z,1.00
2023-03-30T03:44:55.800Z,0.70
2023-03-30T03:45:56.748Z,1.10
2023-03-30T03:46:57.751Z,1.00
2023-03-30T03:47:58.219Z,0.90
2023-03-30T03:48:59.126Z,0.80
2023-03-30T03:50:00.011Z,0.90
2023-03-30T03:51:00.922Z,0.80
2023-03-30T03:52:01.435Z,7.60
2023-03-30T03:53:02.302Z,27.20
2023-03-30T03:54:03.186Z,25.70
2023-03-30T03:55:04.057Z,15.80
2023-03-30T03:56:04.938Z,5.80
2023-03-30T03:57:05.875Z,3.90
2023-03-30T03:58:06.725Z,2.20
2023-03-30T03:59:07.596Z,1.40
2023-03-30T04:00:08.481Z,0.90
2023-03-30T04:01:09.460Z,1.00
2023-03-30T04:02:09.963Z,0.90
2023-03-30T04:03:10.854Z,0.90
2023-03-30T04:04:11.765Z,0.90
2023-03-30T04:05:12.606Z,0.90
2023-03-30T04:06:13.487Z,0.90
2023-03-30T04:07:14.358Z,1.00
2023-03-30T04:08:15.239Z,1.00
2023-03-30T04:09:16.133Z,2.10
2023-03-30T04:10:17.037Z,0.90
2023-03-30T04:11:17.912Z,0.80
2023-03-30T04:12:18.779Z,1.00
2023-03-30T04:13:19.673Z,1.10
2023-03-30T04:14:20.563Z,0.90
2023-03-30T04:15:21.436Z,0.90
2023-03-30T04:16:22.330Z,1.00
2023-03-30T04:17:23.200Z,0.80
2023-03-30T04:18:24.120Z,0.90
2023-03-30T04:19:25.055Z,0.70
2023-03-30T04:20:25.935Z,1.00
2023-03-30T04:21:26.861Z,1.00
2023-03-30T04:22:27.723Z,1.10
2023-03-30T04:23:28.583Z,1.20
2023-03-30T04:24:29.488Z,0.80
2023-03-30T04:25:30.368Z,0.80
2023-03-30T04:26:31.250Z,0.90
2023-03-30T04:27:32.143Z,1.20
2023-03-30T04:28:33.029Z,1.10
2023-03-30T04:29:33.914Z,0.90
2023-03-30T04:30:34.805Z,1.00
2023-03-30T04:31:35.684Z,0.80
2023-03-30T04:32:36.633Z,0.80
2023-03-30T04:33:37.510Z,1.00
2023-03-30T04:34:38.390Z,0.80
2023-03-30T04:35:39.348Z,1.00
2023-03-30T04:36:40.178Z,1.00
2023-03-30T04:37:41.052Z,1.10
2023-03-30T04:38:41.932Z,1.10
2023-03-30T04:39:43.059Z,1.20
2023-03-30T04:40:43.457Z,1.50
2023-03-30T04:41:44.329Z,1.50
2023-03-30T04:42:45.202Z,1.80
2023-03-30T04:43:46.085Z,1.40
2023-03-30T04:44:49.231Z,1.40
2023-03-30T04:45:47.941Z,1.60
2023-03-30T04:46:48.828Z,1.50
2023-03-30T04:47:49.733Z,1.00
2023-03-30T04:48:50.591Z,1.10
2023-03-30T04:49:51.464Z,1.20
2023-03-30T04:50:52.359Z,1.60
2023-03-30T04:51:53.252Z,1.70
2023-03-30T04:52:54.149Z,1.70
2023-03-30T04:53:55.016Z,1.60
2023-03-30T04:54:55.915Z,1.70
2023-03-30T04:55:56.782Z,1.70
2023-03-30T04:56:57.628Z,1.70
2023-03-30T04:57:58.494Z,1.40
2023-03-30T04:58:59.413Z,1.50
2023-03-30T05:00:00.278Z,1.30
2023-03-30T05:01:01.155Z,1.30
2023-03-30T05:02:01.951Z,1.50
2023-03-30T05:03:02.947Z,1.70
2023-03-30T05:04:03.763Z,1.50
2023-03-30T05:05:04.662Z,1.30
2023-03-30T05:06:05.534Z,1.20
2023-03-30T05:07:06.364Z,1.50
2023-03-30T05:08:07.193Z,1.00
2023-03-30T05:09:08.042Z,1.10
2023-03-30T05:10:08.864Z,1.20
2023-03-30T05:11:09.732Z,1.10
2023-03-30T05:12:10.582Z,0.90
2023-03-30T05:13:11.456Z,0.90
2023-03-30T05:14:12.304Z,0.90
2023-03-30T05:15:13.139Z,1.10
2023-03-30T05:16:14.006Z,1.00
2023-03-30T05:17:14.850Z,1.30
2023-03-30T05:18:15.682Z,1.00
2023-03-30T05:19:16.493Z,1.70
2023-03-30T05:20:17.315Z,0.90
2023-03-30T05:21:18.135Z,1.10
2023-03-30T05:22:18.963Z,1.00
2023-03-30T05:23:19.818Z,0.80
2023-03-30T05:24:20.608Z,1.30
2023-03-30T05:25:21.449Z,1.00
2023-03-30T05:26:22.328Z,1.00
2023-03-30T05:27:23.122Z,1.00
2023-03-30T05:28:23.947Z,1.00
2023-03-30T05:29:24.792Z,1.00
2023-03-30T05:30:25.617Z,1.00
2023-03-30T05:31:26.523Z,1.10
2023-03-30T05:32:27.346Z,1.10
2023-03-30T05:33:28.142Z,1.10
2023-03-30T05:34:28.995Z,1.00
2023-03-30T05:35:29.851Z,0.90
2023-03-30T05:36:30.647Z,0.90
2023-03-30T05:37:31.465Z,1.10
2023-03-30T05:38:32.290Z,1.10
2023-03-30T05:39:33.112Z,1.00
2023-03-30T05:40:33.982Z,1.00
2023-03-30T05:41:34.961Z,2.10
2023-03-30T05:42:35.758Z,1.60
2023-03-30T05:43:36.583Z,1.90
2023-03-30T05:44:37.471Z,1.90
2023-03-30T05:45:38.239Z,1.40
2023-03-30T05:46:39.119Z,1.90
2023-03-30T05:47:39.988Z,1.30
2023-03-30T05:48:40.772Z,1.60
2023-03-30T05:49:41.627Z,1.70
2023-03-30T05:50:42.438Z,3.20
2023-03-30T05:51:43.264Z,3.40
2023-03-30T05:52:44.086Z,3.30
2023-03-30T05:53:44.939Z,2.20
2023-03-30T05:54:45.740Z,1.70
2023-03-30T05:55:46.584Z,2.30
2023-03-30T05:56:48.098Z,2.00
2023-03-30T05:57:48.065Z,2.20
2023-03-30T05:58:48.897Z,1.10
2023-03-30T05:59:49.745Z,1.20
2023-03-30T06:00:50.559Z,0.90
2023-03-30T06:01:51.378Z,1.30
2023-03-30T06:02:52.337Z,1.00
2023-03-30T06:03:52.824Z,0.80
2023-03-30T06:04:53.444Z,1.20
2023-03-30T06:05:54.353Z,1.30
2023-03-30T06:06:55.140Z,1.70
2023-03-30T06:07:55.984Z,1.00
2023-03-30T06:08:56.789Z,1.00
2023-03-30T06:09:57.604Z,0.90
2023-03-30T06:10:58.465Z,0.90
2023-03-30T06:11:59.291Z,1.30
2023-03-30T06:13:00.126Z,1.10
2023-03-30T06:14:00.917Z,1.10
2023-03-30T06:15:01.745Z,0.90
2023-03-30T06:16:03.660Z,0.80
2023-03-30T06:17:03.281Z,0.80
2023-03-30T06:18:04.174Z,1.10
2023-03-30T06:19:04.985Z,1.10
2023-03-30T06:20:05.813Z,1.30
2023-03-30T06:21:06.751Z,1.60
2023-03-30T06:22:07.236Z,1.60
2023-03-30T06:23:08.055Z,1.50
2023-03-30T06:24:08.895Z,1.30
2023-03-30T06:25:09.699Z,1.10
2023-03-30T06:26:10.545Z,1.40
2023-03-30T06:27:11.368Z,1.20
2023-03-30T06:28:12.192Z,1.10
2023-03-30T06:29:13.015Z,1.00
2023-03-30T06:30:13.894Z,0.90
2023-03-30T06:31:14.707Z,0.90
2023-03-30T06:32:15.513Z,0.80
2023-03-30T06:33:16.350Z,1.00
2023-03-30T06:34:17.175Z,0.80
2023-03-30T06:35:18.044Z,0.90
2023-03-30T06:36:18.972Z,0.80
2023-03-30T06:37:19.780Z,1.00
2023-03-30T06:38:20.610Z,1.30
2023-03-30T06:39:21.442Z,1.20
2023-03-30T06:40:22.246Z,1.50
2023-03-30T06:41:23.083Z,1.50
2023-03-30T06:42:23.943Z,1.10
2023-03-30T06:43:24.742Z,1.00
2023-03-30T06:44:25.574Z,1.30
2023-03-30T06:45:26.449Z,1.10
2023-03-30T06:46:27.353Z,1.20
2023-03-30T06:47:28.230Z,1.00
2023-03-30T06:48:29.068Z,1.00
2023-03-30T06:49:29.876Z,1.30
2023-03-30T06:50:30.718Z,1.00
2023-03-30T06:51:31.548Z,1.10
2023-03-30T06:52:32.366Z,1.00
2023-03-30T06:53:33.198Z,1.30
2023-03-30T06:54:34.025Z,1.20
2023-03-30T06:55:34.854Z,2.10
2023-03-30T06:56:35.692Z,1.30
2023-03-30T06:57:36.526Z,1.10
2023-03-30T06:58:37.342Z,1.40
2023-03-30T06:59:38.171Z,1.30
2023-03-30T07:00:38.999Z,1.10
2023-03-30T07:01:39.901Z,1.00
2023-03-30T07:02:40.742Z,1.30
2023-03-30T07:03:41.539Z,1.10
2023-03-30T07:04:42.410Z,1.90
2023-03-30T07:05:43.280Z,1.90
2023-03-30T07:06:44.116Z,2.50
2023-03-30T07:07:44.947Z,1.50
2023-03-30T07:08:45.767Z,1.20
2023-03-30T07:09:46.601Z,1.40
2023-03-30T07:10:47.434Z,1.80
2023-03-30T07:11:48.279Z,1.50
2023-03-30T07:12:49.109Z,1.40
2023-03-30T07:13:49.928Z,1.40
2023-03-30T07:14:50.763Z,1.40
2023-03-30T07:15:51.595Z,1.30
2023-03-30T07:16:52.520Z,1.20
2023-03-30T07:17:53.403Z,1.30
2023-03-30T07:18:54.240Z,1.50
2023-03-30T07:19:55.081Z,1.40
2023-03-30T07:20:55.923Z,1.20
2023-03-30T07:21:56.751Z,1.30
2023-03-30T07:22:57.580Z,1.40
2023-03-30T07:23:58.489Z,1.60
2023-03-30T07:24:59.349Z,1.90
2023-03-30T07:26:00.158Z,1.30
2023-03-30T07:27:00.977Z,1.40
2023-03-30T07:28:01.813Z,1.30
2023-03-30T07:29:02.638Z,2.00
2023-03-30T07:30:13.772Z,1.60
2023-03-30T07:31:05.330Z,1.40
2023-03-30T07:32:04.764Z,1.20
2023-03-30T07:33:05.612Z,1.00
2023-03-30T07:34:06.393Z,1.10
2023-03-30T07:35:07.216Z,1.20
2023-03-30T07:36:08.102Z,1.10
2023-03-30T07:37:08.946Z,1.50
2023-03-30T07:38:09.762Z,1.00
2023-03-30T07:39:10.590Z,1.00
2023-03-30T07:40:11.498Z,1.10
2023-03-30T07:41:12.341Z,1.00
2023-03-30T07:42:13.167Z,1.00
2023-03-30T07:43:13.978Z,1.20
2023-03-30T07:44:14.927Z,1.00
2023-03-30T07:45:16.558Z,1.10
2023-03-30T07:46:16.634Z,1.10
2023-03-30T07:47:17.438Z,0.90
2023-03-30T07:48:18.256Z,0.90
2023-03-30T07:49:19.108Z,1.00
2023-03-30T07:50:19.919Z,0.90
2023-03-30T07:51:20.757Z,0.80
2023-03-30T07:52:21.602Z,1.00
2023-03-30T07:53:22.401Z,0.90
2023-03-30T07:54:23.228Z,0.80
2023-03-30T07:55:24.062Z,1.00
2023-03-30T07:56:24.871Z,1.10
2023-03-30T07:57:25.817Z,1.00
2023-03-30T07:58:26.642Z,0.80
2023-03-30T07:59:27.483Z,1.10
2023-03-30T08:00:28.305Z,1.00
2023-03-30T08:01:29.123Z,2.40
2023-03-30T08:02:29.979Z,1.10
2023-03-30T08:03:30.913Z,1.30
2023-03-30T08:04:31.931Z,1.10
2023-03-30T08:05:32.289Z,0.90
2023-03-30T08:06:33.133Z,1.20
2023-03-30T08:07:33.944Z,1.00
2023-03-30T08:08:34.785Z,1.10
2023-03-30T08:09:35.612Z,1.00
2023-03-30T08:10:36.454Z,1.10
2023-03-30T08:11:37.299Z,1.10
2023-03-30T08:12:38.117Z,1.00
2023-03-30T08:13:38.953Z,1.40
2023-03-30T08:14:39.786Z,1.00
2023-03-30T08:15:40.704Z,1.40
2023-03-30T08:16:41.576Z,1.30
2023-03-30T08:17:42.463Z,1.40
2023-03-30T08:18:43.271Z,1.30
2023-03-30T08:19:44.105Z,1.30
2023-03-30T08:20:44.917Z,1.10
2023-03-30T08:21:45.764Z,1.20
2023-03-30T08:22:46.578Z,1.10
2023-03-30T08:23:47.409Z,1.30
2023-03-30T08:24:48.242Z,1.30
2023-03-30T08:25:49.077Z,1.10
2023-03-30T08:26:49.899Z,1.10
2023-03-30T08:27:50.754Z,1.40
2023-03-30T08:28:51.570Z,1.00
2023-03-30T08:29:52.396Z,1.20
2023-03-30T08:30:53.225Z,1.00
2023-03-30T08:31:54.104Z,0.90
2023-03-30T08:32:55.039Z,1.20
2023-03-30T08:33:55.856Z,1.10
2023-03-30T08:34:56.679Z,1.10
2023-03-30T08:35:57.556Z,0.90
2023-03-30T08:36:58.382Z,1.00
2023-03-30T08:37:59.165Z,0.80
2023-03-30T08:38:59.991Z,0.90
2023-03-30T08:40:00.861Z,1.10
2023-03-30T08:41:01.794Z,0.90
2023-03-30T08:42:02.185Z,1.20
2023-03-30T08:43:03.038Z,0.90
2023-03-30T08:44:03.849Z,0.70
2023-03-30T08:45:04.683Z,1.30
2023-03-30T08:46:05.567Z,1.00
2023-03-30T08:47:06.444Z,1.20
2023-03-30T08:48:07.281Z,1.20
2023-03-30T08:49:08.114Z,0.90
2023-03-30T08:50:08.936Z,1.20
2023-03-30T08:51:09.768Z,1.00
2023-03-30T08:52:10.616Z,1.20
2023-03-30T08:53:11.431Z,1.30
2023-03-30T08:54:12.249Z,1.30
2023-03-30T08:55:13.103Z,1.10
2023-03-30T08:56:13.938Z,1.90
2023-03-30T08:57:14.814Z,1.80
2023-03-30T08:58:15.664Z,1.60
2023-03-30T08:59:16.471Z,1.50
2023-03-30T09:00:17.296Z,1.10
2023-03-30T09:01:18.181Z,1.00
2023-03-30T09:02:19.095Z,1.00
2023-03-30T09:03:19.943Z,1.00
2023-03-30T09:04:20.786Z,0.90
2023-03-30T09:05:21.662Z,0.90
2023-03-30T09:06:22.496Z,1.10
2023-03-30T09:07:23.389Z,0.90
2023-03-30T09:08:24.173Z,0.90
2023-03-30T09:09:24.988Z,0.80
2023-03-30T09:10:25.850Z,0.70
2023-03-30T09:11:26.664Z,0.90
2023-03-30T09:12:27.497Z,0.80
2023-03-30T09:13:28.346Z,0.80
2023-03-30T09:14:29.166Z,1.00
2023-03-30T09:15:31.770Z,0.90
2023-03-30T09:16:30.969Z,0.80
2023-03-30T09:17:31.751Z,1.00
2023-03-30T09:18:32.608Z,0.80
2023-03-30T09:19:33.421Z,0.80
2023-03-30T09:20:34.260Z,0.90
2023-03-30T09:21:35.081Z,0.80
2023-03-30T09:22:35.930Z,0.80
2023-03-30T09:23:36.801Z,1.20
2023-03-30T09:24:37.595Z,0.90
2023-03-30T09:25:38.420Z,0.90
2023-03-30T09:26:39.256Z,0.90
2023-03-30T09:27:40.076Z,1.00
2023-03-30T09:28:40.929Z,1.10
2023-03-30T09:29:41.750Z,1.20
2023-03-30T09:30:42.584Z,0.90
2023-03-30T09:31:43.493Z,0.90
2023-03-30T09:32:44.341Z,1.10
2023-03-30T09:33:45.120Z,0.90
2023-03-30T09:34:45.952Z,1.00
2023-03-30T09:35:46.810Z,0.90
2023-03-30T09:36:47.608Z,0.90
2023-03-30T09:37:48.462Z,1.00
2023-03-30T09:38:49.278Z,0.80
2023-03-30T09:39:50.115Z,1.10
2023-03-30T09:40:50.932Z,1.30
2023-03-30T09:41:51.768Z,1.20
2023-03-30T09:42:52.590Z,1.30
2023-03-30T09:43:53.427Z,1.20
2023-03-30T09:44:54.259Z,1.10
2023-03-30T09:45:55.118Z,0.90
2023-03-30T09:46:55.934Z,0.90
2023-03-30T09:47:56.766Z,0.90
2023-03-30T09:48:57.576Z,1.00
2023-03-30T09:49:58.407Z,1.00
2023-03-30T09:50:59.257Z,0.90
2023-03-30T09:52:00.086Z,0.90
2023-03-30T09:53:01.080Z,1.40
2023-03-30T09:54:01.416Z,1.00
2023-03-30T09:55:02.242Z,0.90
2023-03-30T09:56:03.335Z,0.80
2023-03-30T09:57:03.766Z,0.80
2023-03-30T09:58:04.573Z,1.10
2023-03-30T09:59:05.404Z,1.00
2023-03-30T10:00:06.238Z,0.80
2023-03-30T10:01:07.104Z,0.80
2023-03-30T10:02:10.108Z,0.90
2023-03-30T10:03:09.000Z,0.80
2023-03-30T10:04:10.026Z,1.00
2023-03-30T10:05:10.435Z,1.20
2023-03-30T10:06:11.237Z,0.80
2023-03-30T10:07:18.615Z,0.80
2023-03-30T10:08:13.816Z,0.80
2023-03-30T10:09:13.616Z,0.80
2023-03-30T10:10:14.460Z,0.80
2023-03-30T10:11:15.289Z,0.90
2023-03-30T10:12:16.100Z,0.90
2023-03-30T10:13:16.943Z,0.80
2023-03-30T10:14:17.790Z,0.70
2023-03-30T10:15:18.607Z,0.70
2023-03-30T10:16:19.458Z,0.90
2023-03-30T10:17:20.261Z,0.90
2023-03-30T10:18:21.076Z,0.90
2023-03-30T10:19:21.941Z,1.00
2023-03-30T10:20:22.745Z,1.00
2023-03-30T10:21:23.579Z,1.00
2023-03-30T10:22:24.402Z,1.20
2023-03-30T10:23:25.262Z,0.80
2023-03-30T10:24:26.084Z,1.10
2023-03-30T10:25:26.921Z,0.70
2023-03-30T10:26:27.760Z,0.80
2023-03-30T10:27:28.587Z,0.90
2023-03-30T10:28:29.409Z,1.70
2023-03-30T10:29:30.255Z,0.90
2023-03-30T10:30:31.084Z,0.80
2023-03-30T10:31:31.979Z,1.10
2023-03-30T10:32:32.769Z,0.80
2023-03-30T10:33:33.570Z,0.90
2023-03-30T10:34:34.421Z,0.90
2023-03-30T10:35:35.302Z,1.00
2023-03-30T10:36:36.070Z,0.90
2023-03-30T10:37:36.915Z,0.70
2023-03-30T10:38:37.761Z,0.80
2023-03-30T10:39:38.571Z,0.90
2023-03-30T10:40:39.455Z,0.90
2023-03-30T10:41:40.226Z,0.80
2023-03-30T10:42:41.064Z,0.70
2023-03-30T10:43:41.893Z,0.80
2023-03-30T10:44:42.722Z,1.00
2023-03-30T10:45:43.549Z,0.80
2023-03-30T10:46:44.433Z,1.00
2023-03-30T10:47:45.251Z,0.90
2023-03-30T10:48:46.045Z,1.40
2023-03-30T10:49:46.890Z,0.80
2023-03-30T10:50:47.708Z,0.80
2023-03-30T10:51:48.538Z,0.80
2023-03-30T10:52:58.428Z,2.00
2023-03-30T10:53:51.107Z,0.90
2023-03-30T10:54:50.918Z,1.00
2023-03-30T10:55:51.758Z,0.90
2023-03-30T10:56:52.642Z,0.80
2023-03-30T10:57:53.451Z,1.00
2023-03-30T10:58:54.271Z,0.90
2023-03-30T10:59:56.771Z,0.70
2023-03-30T11:00:55.786Z,0.90
2023-03-30T11:01:56.597Z,0.90
2023-03-30T11:02:57.461Z,0.80
2023-03-30T11:03:59.837Z,1.00
2023-03-30T11:04:58.970Z,0.80
2023-03-30T11:05:59.800Z,0.90
2023-03-30T11:07:00.629Z,0.70
2023-03-30T11:08:01.475Z,0.80
2023-03-30T11:09:02.328Z,0.90
2023-03-30T11:10:03.133Z,0.90
2023-03-30T11:11:03.983Z,1.30
2023-03-30T11:12:04.819Z,1.00
2023-03-30T11:13:05.630Z,1.00
2023-03-30T11:14:06.470Z,0.90
2023-03-30T11:15:07.295Z,0.90
2023-03-30T11:16:08.714Z,0.80
2023-03-30T11:17:08.730Z,1.10
2023-03-30T11:18:09.540Z,1.10
2023-03-30T11:19:10.400Z,1.10
2023-03-30T11:20:11.186Z,1.20
2023-03-30T11:21:12.006Z,0.90
2023-03-30T11:22:12.842Z,1.00
2023-03-30T11:23:13.664Z,0.90
2023-03-30T11:24:14.661Z,0.90
2023-03-30T11:25:15.430Z,1.10
2023-03-30T11:26:16.260Z,0.90
2023-03-30T11:27:17.092Z,1.00
2023-03-30T11:28:17.913Z,0.80
2023-03-30T11:29:18.730Z,1.00
2023-03-30T11:30:19.571Z,1.00
2023-03-30T11:31:20.444Z,1.10
2023-03-30T11:32:21.242Z,0.90
2023-03-30T11:33:22.065Z,0.90
2023-03-30T11:34:22.910Z,0.80
2023-03-30T11:35:23.732Z,0.90
2023-03-30T11:36:24.582Z,1.10
2023-03-30T11:37:25.384Z,1.10
2023-03-30T11:38:26.234Z,0.90
2023-03-30T11:39:32.274Z,1.20
2023-03-30T11:40:28.771Z,1.40
2023-03-30T11:41:28.582Z,1.70
2023-03-30T11:42:29.423Z,1.50
2023-03-30T11:43:30.238Z,2.10
2023-03-30T11:44:31.068Z,2.00
2023-03-30T11:45:31.909Z,2.10
2023-03-30T11:46:32.751Z,1.50
2023-03-30T11:47:33.562Z,1.30
2023-03-30T11:48:34.382Z,1.30
2023-03-30T11:49:35.202Z,1.10
2023-03-30T11:50:36.264Z,2.00
2023-03-30T11:51:36.537Z,1.60
2023-03-30T11:52:37.385Z,1.00
2023-03-30T11:53:38.198Z,1.00
2023-03-30T11:54:39.072Z,1.00
2023-03-30T11:55:39.913Z,1.10
2023-03-30T11:56:40.782Z,1.40
2023-03-30T11:57:41.572Z,1.30
2023-03-30T11:58:42.415Z,1.40
2023-03-30T11:59:45.241Z,1.00
2023-03-30T12:00:44.209Z,0.90
2023-03-30T12:01:45.032Z,1.10
2023-03-30T12:02:45.950Z,1.40
2023-03-30T12:03:46.948Z,1.30
2023-03-30T12:04:47.402Z,1.50
2023-03-30T12:05:49.954Z,1.30
2023-03-30T12:06:48.774Z,1.50
2023-03-30T12:07:49.612Z,1.50
2023-03-30T12:08:50.426Z,1.40
2023-03-30T12:09:51.268Z,1.30
2023-03-30T12:10:52.097Z,1.20
2023-03-30T12:11:53.024Z,1.30
2023-03-30T12:12:53.843Z,1.40
2023-03-30T12:13:54.670Z,1.40
2023-03-30T12:14:55.505Z,1.20
2023-03-30T12:15:56.419Z,1.10
2023-03-30T12:16:57.189Z,1.00
2023-03-30T12:17:58.074Z,1.40
2023-03-30T12:18:58.889Z,0.90
2023-03-30T12:19:59.711Z,0.90
2023-03-30T12:21:00.543Z,0.90
2023-03-30T12:22:01.437Z,0.90
2023-03-30T12:23:02.282Z,0.80
2023-03-30T12:24:03.086Z,1.30
2023-03-30T12:25:03.969Z,1.00
2023-03-30T12:26:05.127Z,1.00
2023-03-30T12:27:07.050Z,0.90
2023-03-30T12:28:06.314Z,0.80
2023-03-30T12:30:07.882Z,0.80
2023-03-30T12:31:08.805Z,0.90
2023-03-30T12:32:09.717Z,0.60
2023-03-30T12:33:10.556Z,0.80
2023-03-30T12:34:11.406Z,0.70
2023-03-30T12:35:12.230Z,0.60
2023-03-30T12:36:13.090Z,0.50
2023-03-30T12:37:13.960Z,0.60
2023-03-30T12:38:14.774Z,0.50
2023-03-30T12:39:15.666Z,0.50
2023-03-30T12:40:16.524Z,0.80
2023-03-30T12:41:17.325Z,0.80
2023-03-30T12:42:18.167Z,0.90
2023-03-30T12:43:19.006Z,0.60
2023-03-30T12:44:19.848Z,0.70
2023-03-30T12:45:20.686Z,0.60
2023-03-30T12:46:21.554Z,0.50
2023-03-30T12:47:22.515Z,0.60
2023-03-30T12:48:22.876Z,0.60
2023-03-30T12:49:23.697Z,0.70
2023-03-30T12:50:24.527Z,0.70
2023-03-30T12:51:26.042Z,0.70
2023-03-30T12:52:25.901Z,0.70
2023-03-30T12:53:26.712Z,0.70
2023-03-30T12:54:27.520Z,0.80
2023-03-30T12:55:28.404Z,0.80
2023-03-30T12:56:29.193Z,0.60
2023-03-30T12:57:30.136Z,0.60
2023-03-30T12:58:30.725Z,0.80
2023-03-30T12:59:31.556Z,0.90
2023-03-30T13:00:32.396Z,1.30
2023-03-30T13:01:33.294Z,1.00
2023-03-30T13:02:34.094Z,0.80
2023-03-30T13:03:34.928Z,0.70
2023-03-30T13:04:35.822Z,0.80
2023-03-30T13:05:36.620Z,1.00
2023-03-30T13:06:37.435Z,1.00
2023-03-30T13:07:38.282Z,1.30
2023-03-30T13:08:39.098Z,1.10
2023-03-30T13:09:39.926Z,1.20
2023-03-30T13:10:40.840Z,1.10
2023-03-30T13:11:41.651Z,1.10
2023-03-30T13:12:42.605Z,1.10
2023-03-30T13:13:43.485Z,1.10
2023-03-30T13:14:44.281Z,1.40
2023-03-30T13:15:45.181Z,1.40
2023-03-30T13:16:46.967Z,1.10
2023-03-30T13:17:46.869Z,1.10
2023-03-30T13:18:47.671Z,1.30
2023-03-30T13:19:48.581Z,1.20
2023-03-30T13:20:50.424Z,1.90
2023-03-30T13:21:50.256Z,2.50
2023-03-30T13:22:51.071Z,2.00
2023-03-30T13:23:51.908Z,2.30
2023-03-30T13:24:52.733Z,1.60
2023-03-30T13:25:53.586Z,1.40
2023-03-30T13:26:54.404Z,1.50
2023-03-30T13:27:55.213Z,1.30
2023-03-30T13:28:56.070Z,1.10
2023-03-30T13:29:56.869Z,1.20
2023-03-30T13:30:57.744Z,1.00